Time;durP1;ratioP1;P1;durP2;ratioP2;P2;SDS_P1;SDS_P2;PMS_P1;PMS_P2;Temp;Humidity;BMP_temperature;BMP_pressure;BME280_temperature;BME280_humidity;BME280_pressure;Samples;Min_cycle;Max_cycle;Signal;HPM_P1;HPM_P2
2020/12/15 00:01:19;;;;;;;9.67;6.73;;;;;;;6.00;88.07;100717.06;5073718;28;20056;-69
2020/12/15 00:03:44;;;;;;;10.65;6.05;;;;;;;6.03;87.92;100720.28;5073610;28;20043;-69
2020/12/15 00:06:09;;;;;;;9.93;5.73;;;;;;;6.02;87.94;100723.91;5072481;28;20052;-69
2020/12/15 00:08:35;;;;;;;9.97;5.97;;;;;;;6.02;87.76;100709.81;5073708;28;20048;-69
2020/12/15 00:11:00;;;;;;;8.75;6.57;;;;;;;6.00;87.69;100693.22;5073652;28;20102;-69
2020/12/15 00:13:26;;;;;;;13.03;6.57;;;;;;;6.07;86.77;100684.59;5072628;28;20435;-69
2020/12/15 00:15:51;;;;;;;9.33;5.97;;;;;;;6.05;86.82;100691.00;5073300;28;20399;-69
2020/12/15 00:18:16;;;;;;;11.30;5.70;;;;;;;6.04;86.79;100687.50;5073464;28;20586;-69
2020/12/15 00:20:42;;;;;;;8.10;5.63;;;;;;;6.04;86.73;100694.59;5072569;28;20538;-69
2020/12/15 00:23:08;;;;;;;13.83;5.53;;;;;;;6.02;87.08;100696.56;5072445;28;20458;-69
2020/12/15 00:25:34;;;;;;;8.55;5.20;;;;;;;6.03;86.64;100695.59;5073104;28;20039;-69
2020/12/15 00:27:59;;;;;;;8.13;4.67;;;;;;;6.07;86.43;100697.84;5073359;28;20841;-69
2020/12/15 00:30:25;;;;;;;7.73;5.23;;;;;;;6.16;85.83;100709.44;5072457;28;20041;-69
2020/12/15 00:32:51;;;;;;;6.90;4.57;;;;;;;6.08;85.92;100712.75;5072171;28;20442;-69
2020/12/15 00:35:17;;;;;;;10.88;5.18;;;;;;;6.14;85.78;100711.41;5073283;28;20046;-69
2020/12/15 00:37:42;;;;;;;9.47;5.30;;;;;;;6.12;85.30;100705.38;5072803;28;20120;-69
2020/12/15 00:40:07;;;;;;;8.30;5.00;;;;;;;6.17;84.96;100721.72;5072404;28;20142;-69
2020/12/15 00:42:33;;;;;;;12.60;5.33;;;;;;;6.19;84.99;100709.16;5072910;28;20075;-69
2020/12/15 00:44:58;;;;;;;9.70;4.80;;;;;;;6.19;85.00;100719.78;5072105;28;20048;-69
2020/12/15 00:47:24;;;;;;;6.03;3.92;;;;;;;6.18;85.18;100728.72;5071640;28;20369;-69
2020/12/15 00:49:49;;;;;;;8.30;4.23;;;;;;;6.21;85.06;100711.69;5071971;28;20037;-69
2020/12/15 00:52:14;;;;;;;8.07;4.40;;;;;;;6.15;85.13;100713.06;5072788;28;20024;-69
2020/12/15 00:54:40;;;;;;;10.60;5.23;;;;;;;6.16;84.82;100716.53;5071911;28;20051;-69
2020/12/15 00:57:05;;;;;;;7.97;4.67;;;;;;;6.13;85.02;100731.78;5072467;28;20032;-69
2020/12/15 00:59:31;;;;;;;9.90;5.13;;;;;;;6.10;85.26;100720.59;5071835;28;20119;-69
2020/12/15 01:01:58;;;;;;;9.73;4.93;;;;;;;6.06;85.04;100717.38;5071560;28;20048;-69
2020/12/15 01:04:23;;;;;;;7.40;5.28;;;;;;;6.08;85.23;100715.41;5071520;28;20043;-69
2020/12/15 01:06:49;;;;;;;9.63;4.60;;;;;;;6.05;84.98;100706.91;5071296;28;20020;-69
2020/12/15 01:09:15;;;;;;;10.30;5.43;;;;;;;6.03;85.34;100712.31;5055084;28;20142;-69
2020/12/15 01:11:40;;;;;;;10.90;5.17;;;;;;;6.02;85.41;100712.47;5071453;28;20040;-69
2020/12/15 01:14:12;;;;;;;7.95;4.88;;;;;;;6.01;85.23;100698.34;5071519;28;20370;-68
2020/12/15 01:16:40;;;;;;;8.65;5.18;;;;;;;6.02;85.66;100696.56;5070962;28;20060;-68
2020/12/15 01:19:05;;;;;;;6.50;4.80;;;;;;;5.96;85.54;100691.78;5071405;28;20060;-68
2020/12/15 01:21:34;;;;;;;7.80;5.15;;;;;;;5.93;85.96;100699.00;5071164;28;20461;-68
2020/12/15 01:24:01;;;;;;;9.32;5.90;;;;;;;5.88;86.17;100700.38;5071267;28;20495;-68
2020/12/15 01:26:29;;;;;;;9.32;5.30;;;;;;;5.89;86.37;100692.28;5070943;28;20214;-68
2020/12/15 01:28:55;;;;;;;11.43;5.10;;;;;;;5.83;86.71;100694.63;5071138;28;20485;-68
2020/12/15 01:31:27;;;;;;;6.70;4.22;;;;;;;5.77;87.13;100690.72;5072117;28;20043;-69
2020/12/15 01:34:13;;;;;;;8.98;6.05;;;;;;;5.72;87.42;100680.50;5071106;28;20032;-68
2020/12/15 01:36:50;;;;;;;8.65;5.03;;;;;;;5.70;87.63;100671.84;5070847;28;20420;-69
2020/12/15 01:39:19;;;;;;;9.75;5.88;;;;;;;5.66;87.91;100680.19;5070928;28;20477;-69
2020/12/15 01:41:52;;;;;;;9.32;5.53;;;;;;;5.60;88.13;100665.69;5070884;28;20036;-69
2020/12/15 01:44:18;;;;;;;8.07;5.50;;;;;;;5.62;88.37;100668.19;5071865;28;20424;-69
2020/12/15 01:46:46;;;;;;;8.80;5.20;;;;;;;5.65;88.26;100663.47;5070462;28;20032;-69
2020/12/15 01:49:13;;;;;;;;;;;;;;;5.61;88.32;100655.91;5054799;28;20040;-69
2020/12/15 01:51:49;;;;;;;12.02;5.57;;;;;;;5.56;88.61;100640.44;5070716;28;19916;-68
2020/12/15 01:54:17;;;;;;;8.07;5.95;;;;;;;5.52;88.45;100641.66;5054368;28;20068;-68
2020/12/15 01:56:47;;;;;;;10.50;6.50;;;;;;;5.55;88.71;100633.47;5070391;28;20036;-68
2020/12/15 01:59:19;;;;;;;9.15;5.90;;;;;;;5.49;88.86;100626.88;5070819;28;20071;-68
2020/12/15 02:01:46;;;;;;;9.98;5.72;;;;;;;5.52;88.45;100619.63;5054044;28;20123;-68
2020/12/15 02:04:19;;;;;;;13.05;5.22;;;;;;;5.50;88.80;100617.97;5054883;28;20086;-67
2020/12/15 02:07:00;;;;;;;8.90;5.20;;;;;;;5.54;88.43;100609.75;5071301;28;20477;-67
2020/12/15 02:09:26;;;;;;;12.25;5.70;;;;;;;5.55;88.35;100608.78;5053891;28;20043;-67
2020/12/15 02:12:04;;;;;;;7.82;5.47;;;;;;;5.57;88.08;100606.84;5070585;28;20024;-67
2020/12/15 02:14:33;;;;;;;7.00;4.63;;;;;;;5.59;87.83;100611.03;5054272;28;20046;-67
2020/12/15 02:16:59;;;;;;;7.43;4.88;;;;;;;5.61;87.54;100602.94;5069965;28;20036;-68
2020/12/15 02:19:44;;;;;;;9.75;5.90;;;;;;;5.59;88.09;100610.19;5071312;28;20076;-67
2020/12/15 02:22:09;;;;;;;8.10;5.20;;;;;;;5.58;88.27;100625.25;5070381;28;20429;-68
2020/12/15 02:24:39;;;;;;;7.72;5.70;;;;;;;5.49;88.88;100618.09;5070262;28;20032;-68
2020/12/15 02:27:10;;;;;;;9.57;6.10;;;;;;;5.44;89.10;100613.19;5070018;28;20354;-68
2020/12/15 02:29:39;;;;;;;10.68;6.10;;;;;;;5.42;89.15;100604.53;5070100;28;20060;-68
2020/12/15 02:32:05;;;;;;;13.15;6.50;;;;;;;5.43;89.22;100608.03;5053674;28;20135;-68
2020/12/15 02:34:35;;;;;;;12.20;6.70;;;;;;;5.40;89.53;100595.88;5070258;28;20385;-68
2020/12/15 02:37:08;;;;;;;13.65;6.78;;;;;;;5.47;89.32;100591.75;5069995;28;20561;-68
2020/12/15 02:39:42;;;;;;;10.77;6.32;;;;;;;5.43;89.19;100574.47;5070207;28;20029;-68
2020/12/15 02:42:20;;;;;;;14.23;7.07;;;;;;;5.38;89.63;100570.53;5070186;28;20468;-68
2020/12/15 02:44:46;;;;;;;10.13;6.37;;;;;;;5.32;89.78;100579.00;5070138;28;20032;-68
2020/12/15 02:47:18;;;;;;;12.75;7.93;;;;;;;5.28;89.88;100587.19;5069802;28;20278;-68
2020/12/15 02:49:44;;;;;;;12.25;6.88;;;;;;;5.25;89.92;100584.00;5071067;28;20036;-68
2020/12/15 02:52:12;;;;;;;10.65;7.25;;;;;;;5.24;89.66;100583.16;5070082;28;20485;-68
2020/12/15 02:54:40;;;;;;;14.55;7.40;;;;;;;5.25;89.73;100587.47;5069901;28;20033;-68
2020/12/15 02:57:07;;;;;;;11.38;6.55;;;;;;;5.28;89.88;100583.72;5053287;28;20029;-68
2020/12/15 02:59:33;;;;;;;12.55;8.02;;;;;;;5.25;89.58;100578.69;5053472;28;20075;-68
2020/12/15 03:02:01;;;;;;;11.85;7.78;;;;;;;5.20;89.81;100570.31;5070624;28;20474;-68
2020/12/15 03:04:26;;;;;;;11.00;6.93;;;;;;;5.21;89.58;100561.41;5057165;28;20044;-68
2020/12/15 03:06:52;;;;;;;13.73;7.43;;;;;;;5.20;89.98;100572.97;5074519;28;20024;-68
2020/12/15 03:09:30;;;;;;;11.00;6.90;;;;;;;5.19;89.93;100588.00;5073918;28;20086;-68
2020/12/15 03:11:59;;;;;;;18.08;7.82;;;;;;;5.24;90.01;100585.81;5073920;28;20465;-68
2020/12/15 03:14:30;;;;;;;11.75;7.70;;;;;;;5.24;89.75;100592.88;5074760;28;20119;-68
2020/12/15 03:16:56;;;;;;;12.18;7.00;;;;;;;5.25;89.26;100608.66;5073492;28;20119;-68
2020/12/15 03:19:23;;;;;;;11.38;7.55;;;;;;;5.26;89.36;100610.31;5073585;28;20123;-67
2020/12/15 03:21:49;;;;;;;11.77;7.37;;;;;;;5.24;89.14;100608.78;5073473;28;20123;-68
2020/12/15 03:24:14;;;;;;;13.15;7.45;;;;;;;5.25;89.13;100597.22;5073571;28;20372;-68
2020/12/15 03:26:42;;;;;;;14.25;7.32;;;;;;;5.26;88.98;100594.44;5073205;28;20088;-68
2020/12/15 03:29:10;;;;;;;11.60;7.25;;;;;;;5.24;89.09;100596.41;5073436;28;20033;-68
2020/12/15 03:31:36;;;;;;;13.85;8.18;;;;;;;5.19;89.03;100597.75;5073419;28;20347;-68
2020/12/15 03:34:01;;;;;;;9.67;6.27;;;;;;;5.19;89.20;100597.75;5073371;28;20029;-68
2020/12/15 03:36:27;;;;;;;16.43;8.03;;;;;;;5.21;89.33;100607.22;5056432;28;20110;-68
2020/12/15 03:38:53;;;;;;;;;;;;;;;5.25;89.15;100603.34;5057246;28;20158;-68
2020/12/15 03:41:21;;;;;;;12.98;7.68;;;;;;;5.24;89.45;100606.13;5073197;28;19949;-69
2020/12/15 03:43:54;;;;;;;10.27;6.45;;;;;;;5.19;89.31;100603.88;5057618;28;20044;-68
2020/12/15 03:46:30;;;;;;;12.38;7.82;;;;;;;5.25;89.09;100603.34;5072766;28;20428;-68
2020/12/15 03:48:59;;;;;;;14.13;7.50;;;;;;;5.13;89.25;100595.59;5073048;28;20037;-68
2020/12/15 03:51:28;;;;;;;11.95;7.00;;;;;;;5.09;89.26;100592.41;5073018;28;20075;-68
2020/12/15 03:54:28;;;;;;;12.95;8.52;;;;;;;5.11;89.66;100605.50;5073887;28;20063;-68
2020/12/15 03:57:19;;;;;;;14.43;8.07;;;;;;;5.06;89.76;100598.78;5050048;28;20055;-67
2020/12/15 04:00:06;;;;;;;11.45;7.78;;;;;;;5.03;90.16;100603.50;5073941;28;20055;-67
2020/12/15 04:02:39;;;;;;;14.32;7.30;;;;;;;5.08;89.97;100606.63;5072936;28;20040;-67
2020/12/15 04:05:11;;;;;;;10.57;7.45;;;;;;;5.04;90.44;100616.59;5072925;28;20043;-67
2020/12/15 04:07:37;;;;;;;12.40;7.93;;;;;;;5.00;90.45;100607.25;5055915;28;20036;-67
2020/12/15 04:10:04;;;;;;;14.70;7.97;;;;;;;4.99;90.46;100610.88;5072784;28;20032;-67
2020/12/15 04:12:30;;;;;;;12.50;8.65;;;;;;;4.96;90.87;100608.47;5073681;28;20461;-67
2020/12/15 04:14:56;;;;;;;15.82;9.52;;;;;;;4.95;90.91;100612.09;5071524;28;20028;-67
2020/12/15 04:17:21;;;;;;;12.73;8.37;;;;;;;4.92;90.91;100600.94;5072281;28;20040;-68
2020/12/15 04:19:47;;;;;;;13.37;8.20;;;;;;;4.90;90.85;100600.22;5072608;28;20028;-68
2020/12/15 04:22:13;;;;;;;15.00;9.23;;;;;;;4.95;90.77;100598.03;5055930;28;20071;-68
2020/12/15 04:24:47;;;;;;;15.70;9.60;;;;;;;4.92;90.61;100596.50;5072521;28;20037;-68
2020/12/15 04:27:13;;;;;;;17.98;9.98;;;;;;;4.92;90.86;100590.38;5072097;28;20028;-68
2020/12/15 04:29:39;;;;;;;17.98;8.60;;;;;;;4.94;90.80;100591.91;5055766;28;20101;-67
2020/12/15 04:32:13;;;;;;;13.75;8.65;;;;;;;4.93;90.71;100594.66;5072263;28;20031;-67
2020/12/15 04:34:59;;;;;;;16.90;9.45;;;;;;;4.93;90.51;100602.59;5058447;28;20051;-67
2020/12/15 04:37:25;;;;;;;16.55;9.85;;;;;;;4.88;90.91;100595.06;5055384;28;20040;-67
2020/12/15 04:39:55;;;;;;;17.17;8.75;;;;;;;4.90;90.60;100592.28;5072204;28;20339;-67
2020/12/15 04:42:23;;;;;;;15.95;8.98;;;;;;;4.89;90.66;100591.44;5071853;28;20493;-67
2020/12/15 04:44:51;;;;;;;17.90;9.80;;;;;;;4.86;90.92;100591.69;5073049;28;20036;-67
2020/12/15 04:47:28;;;;;;;16.33;10.75;;;;;;;4.86;90.95;100586.41;5071658;28;20052;-67
2020/12/15 04:50:08;;;;;;;13.27;8.57;;;;;;;4.82;90.67;100583.19;5056223;28;20040;-68
2020/12/15 04:53:12;;;;;;;17.98;9.90;;;;;;;4.82;90.71;100587.63;5071958;28;20299;-68
2020/12/15 04:55:58;;;;;;;16.15;10.38;;;;;;;4.83;90.95;100589.31;5072554;28;20056;-68
2020/12/15 04:58:32;;;;;;;16.13;10.52;;;;;;;4.82;90.94;100584.97;5071723;28;20047;-68
2020/12/15 05:00:59;;;;;;;19.60;10.65;;;;;;;4.78;90.89;100589.72;5071731;28;20036;-67
2020/12/15 05:03:49;;;;;;;19.10;11.00;;;;;;;4.77;91.22;100595.13;5072250;28;20048;-67
2020/12/15 05:06:16;;;;;;;17.90;10.88;;;;;;;4.78;91.00;100583.59;5072360;28;20112;-67
2020/12/15 05:08:47;;;;;;;15.45;10.20;;;;;;;4.78;91.00;100586.22;5071568;28;20047;-67
2020/12/15 05:11:13;;;;;;;18.30;10.57;;;;;;;4.77;91.03;100597.75;5071663;28;20051;-67
2020/12/15 05:14:03;;;;;;;21.77;10.52;;;;;;;4.77;90.95;100603.06;5071389;28;20028;-67
2020/12/15 05:16:39;;;;;;;17.60;10.60;;;;;;;4.75;91.04;100605.84;5054612;28;20043;-67
2020/12/15 05:19:23;;;;;;;28.25;12.77;;;;;;;4.74;91.07;100613.91;5071712;28;20039;-67
2020/12/15 05:21:59;;;;;;;17.25;11.13;;;;;;;4.77;91.02;100608.34;5054861;28;20028;-68
2020/12/15 05:24:32;;;;;;;22.40;11.75;;;;;;;4.76;91.04;100599.56;5070936;28;20466;-68
2020/12/15 05:27:01;;;;;;;20.80;11.90;;;;;;;4.74;91.07;100608.59;5070864;28;20047;-68
2020/12/15 05:29:30;;;;;;;22.45;12.55;;;;;;;4.72;91.09;100608.72;5055153;28;20040;-68
2020/12/15 05:32:16;;;;;;;19.02;11.27;;;;;;;4.71;91.01;100603.59;5071618;28;20041;-68
2020/12/15 05:35:08;;;;;;;20.38;11.77;;;;;;;4.71;91.04;100599.13;5070911;28;20040;-68
2020/12/15 05:37:56;;;;;;;20.60;12.38;;;;;;;4.71;91.01;100608.88;5071884;28;20047;-68
2020/12/15 05:40:42;;;;;;;19.33;12.25;;;;;;;4.72;90.73;100595.50;5071131;28;20480;-68
2020/12/15 05:43:25;;;;;;;18.65;11.98;;;;;;;4.72;90.93;100597.31;5070698;28;20037;-68
2020/12/15 05:45:52;;;;;;;22.80;13.02;;;;;;;4.72;91.06;100603.44;5054126;28;20032;-68
2020/12/15 05:48:26;;;;;;;20.77;12.10;;;;;;;4.73;90.98;100596.34;5070908;28;20016;-68
2020/12/15 05:50:57;;;;;;;19.27;11.70;;;;;;;4.74;90.86;100590.09;5071822;28;20078;-68
2020/12/15 05:53:22;;;;;;;20.38;13.50;;;;;;;4.72;90.63;100597.31;5070752;28;20456;-68
2020/12/15 05:55:47;;;;;;;25.67;14.60;;;;;;;4.75;90.58;100597.91;5071243;28;20123;-68
2020/12/15 05:58:15;;;;;;;19.93;11.90;;;;;;;4.71;90.66;100596.47;5053712;28;20123;-68
2020/12/15 06:00:40;;;;;;;20.70;12.20;;;;;;;4.73;90.60;100593.69;5069931;28;20358;-68
2020/12/15 06:03:06;;;;;;;19.73;11.20;;;;;;;4.75;90.52;100603.19;5068597;28;20033;-68
2020/12/15 06:05:34;;;;;;;20.33;10.95;;;;;;;4.76;89.98;100596.94;5068739;28;20051;-68
2020/12/15 06:08:02;;;;;;;19.20;12.05;;;;;;;4.82;89.40;100596.44;5068824;28;20530;-68
2020/12/15 06:10:29;;;;;;;14.70;9.40;;;;;;;4.89;89.21;100593.25;5069657;28;20081;-68
2020/12/15 06:12:57;;;;;;;16.40;10.00;;;;;;;4.90;88.80;100593.13;5068877;28;20412;-68
2020/12/15 06:15:23;;;;;;;20.02;11.35;;;;;;;4.90;88.64;100597.59;5070164;28;20071;-68
2020/12/15 06:18:02;;;;;;;15.93;10.02;;;;;;;4.94;88.20;100598.97;5070145;28;20043;-68
2020/12/15 06:20:35;;;;;;;15.15;9.35;;;;;;;5.10;88.26;100593.22;5071378;28;20028;-68
2020/12/15 06:23:02;;;;;;;15.63;10.43;;;;;;;5.10;88.21;100601.19;5071227;28;20048;-68
2020/12/15 06:25:29;;;;;;;16.48;9.65;;;;;;;5.21;87.66;100596.63;5070257;28;20127;-68
2020/12/15 06:28:05;;;;;;;;;;;;;;;5.16;87.57;100592.72;5070593;28;20036;-68
2020/12/15 06:30:32;;;;;;;18.02;10.52;;;;;;;5.05;87.85;100580.41;5070285;28;20341;-67
2020/12/15 06:33:09;;;;;;;18.08;10.63;;;;;;;5.00;88.28;100582.59;5071153;28;20043;-67
2020/12/15 06:35:35;;;;;;;22.55;12.13;;;;;;;5.01;88.29;100578.97;5070021;28;20205;-67
2020/12/15 06:38:04;;;;;;;17.40;10.98;;;;;;;4.95;88.47;100583.00;5069545;28;20036;-67
2020/12/15 06:40:44;;;;;;;18.00;11.82;;;;;;;4.88;88.78;100584.47;5070147;28;20075;-67
2020/12/15 06:43:09;;;;;;;21.92;12.10;;;;;;;4.93;89.02;100587.56;5070995;28;20339;-67
2020/12/15 06:45:35;;;;;;;17.83;11.93;;;;;;;4.90;88.95;100582.53;5069900;28;20044;-67
2020/12/15 06:48:04;;;;;;;18.40;11.23;;;;;;;4.92;88.78;100577.97;5070109;28;20302;-67
2020/12/15 06:50:41;;;;;;;18.88;11.10;;;;;;;4.94;88.82;100583.97;5053299;28;20325;-67
2020/12/15 06:53:11;;;;;;;21.80;11.60;;;;;;;4.97;88.49;100589.00;5069080;28;20029;-67
2020/12/15 06:55:37;;;;;;;18.50;11.77;;;;;;;4.98;88.57;100580.06;5051383;28;20032;-67
2020/12/15 06:58:03;;;;;;;20.27;10.60;;;;;;;4.97;88.82;100581.06;5068350;28;20047;-67
2020/12/15 07:00:34;;;;;;;20.98;12.18;;;;;;;4.98;88.60;100588.00;5069203;28;20053;-66
2020/12/15 07:03:00;;;;;;;21.27;12.10;;;;;;;5.01;88.44;100585.13;5069102;28;20533;-67
2020/12/15 07:05:28;;;;;;;17.40;11.23;;;;;;;5.02;88.43;100586.78;5068266;28;20032;-67
2020/12/15 07:07:56;;;;;;;20.73;11.10;;;;;;;5.03;88.52;100591.13;5068654;28;20079;-67
2020/12/15 07:10:23;;;;;;;21.08;11.55;;;;;;;5.01;88.22;100601.00;5070789;28;20115;-67
2020/12/15 07:12:50;;;;;;;20.40;12.82;;;;;;;5.03;88.35;100593.78;5070709;28;20032;-67
2020/12/15 07:15:16;;;;;;;18.30;10.02;;;;;;;5.06;88.44;100595.31;5070485;28;20039;-67
2020/12/15 07:17:50;;;;;;;25.05;12.23;;;;;;;5.03;88.37;100604.34;5069414;28;20032;-67
2020/12/15 07:20:21;;;;;;;20.58;11.77;;;;;;;5.00;88.65;100591.38;5070866;28;20339;-67
2020/12/15 07:22:46;;;;;;;19.00;12.25;;;;;;;5.06;88.82;100587.38;5069620;28;20040;-67
2020/12/15 07:25:13;;;;;;;21.13;11.50;;;;;;;5.02;89.02;100591.25;5070653;28;20037;-67
2020/12/15 07:27:39;;;;;;;18.52;11.57;;;;;;;5.00;88.98;100603.75;5069413;28;20079;-67
2020/12/15 07:30:09;;;;;;;21.23;11.45;;;;;;;4.97;89.13;100607.50;5069753;28;20040;-67
2020/12/15 07:32:36;;;;;;;17.98;11.25;;;;;;;5.06;88.89;100606.75;5070657;28;20036;-67
2020/12/15 07:35:13;;;;;;;21.15;11.95;;;;;;;5.06;88.86;100617.31;5069839;28;20036;-67
2020/12/15 07:37:41;;;;;;;19.45;11.65;;;;;;;5.04;88.84;100621.91;5070293;28;20028;-67
2020/12/15 07:40:08;;;;;;;17.75;11.30;;;;;;;5.02;89.36;100621.19;5070413;28;20079;-67
2020/12/15 07:42:34;;;;;;;20.08;11.98;;;;;;;5.01;89.46;100622.16;5052772;28;20025;-67
2020/12/15 07:45:03;;;;;;;19.05;11.35;;;;;;;5.04;89.70;100627.19;5069717;28;20036;-67
2020/12/15 07:47:35;;;;;;;20.85;11.35;;;;;;;5.09;89.74;100618.88;5070116;28;20106;-67
2020/12/15 07:50:00;;;;;;;23.73;12.70;;;;;;;5.08;89.45;100614.56;5073124;28;20043;-67
2020/12/15 07:52:37;;;;;;;21.33;12.10;;;;;;;5.01;90.00;100610.72;5073861;28;20029;-67
2020/12/15 07:55:21;;;;;;;20.90;11.57;;;;;;;4.99;90.11;100610.88;5072996;28;20047;-67
2020/12/15 07:57:46;;;;;;;21.27;12.82;;;;;;;4.99;90.22;100613.53;5072593;28;20043;-67
2020/12/15 08:00:17;;;;;;;21.23;12.80;;;;;;;5.05;90.28;100612.97;5073981;28;20525;-67
2020/12/15 08:02:44;;;;;;;20.85;11.95;;;;;;;5.53;91.30;100621.34;5072633;28;20033;-67
2020/12/15 08:05:13;;;;;;;20.00;11.20;;;;;;;5.86;90.72;100615.72;5073754;28;20047;-67
2020/12/15 08:07:42;;;;;;;20.27;11.52;;;;;;;5.53;89.15;100616.03;5072434;28;20040;-67
2020/12/15 08:10:07;;;;;;;16.95;11.27;;;;;;;5.24;89.65;100622.88;5056010;28;20036;-67
2020/12/15 08:12:34;;;;;;;17.70;11.67;;;;;;;5.23;89.75;100623.00;5072730;28;20131;-67
2020/12/15 08:15:01;;;;;;;19.05;10.05;;;;;;;5.23;89.85;100618.53;5072806;28;20394;-67
2020/12/15 08:17:31;;;;;;;15.73;11.15;;;;;;;5.19;90.15;100629.50;5073172;28;20032;-67
2020/12/15 08:20:02;;;;;;;18.27;11.07;;;;;;;5.20;90.14;100629.38;5072199;28;20082;-67
2020/12/15 08:22:27;;;;;;;18.08;11.13;;;;;;;5.24;90.23;100624.66;5072482;28;20041;-67
2020/12/15 08:24:56;;;;;;;14.85;8.63;;;;;;;5.21;90.03;100638.16;5073414;28;20035;-67
2020/12/15 08:27:26;;;;;;;18.42;11.00;;;;;;;5.21;90.15;100628.41;5072049;28;20534;-67
2020/12/15 08:29:51;;;;;;;20.67;11.73;;;;;;;5.26;90.29;100633.31;5073209;28;20120;-67
2020/12/15 08:32:30;;;;;;;20.83;12.07;;;;;;;5.24;90.29;100622.88;5073336;28;20178;-67
2020/12/15 08:35:00;;;;;;;18.92;11.82;;;;;;;5.26;90.37;100625.38;5055550;28;20032;-67
2020/12/15 08:37:26;;;;;;;19.20;10.30;;;;;;;5.28;90.39;100629.56;5073001;28;20040;-67
2020/12/15 08:39:53;;;;;;;19.92;11.85;;;;;;;5.31;90.32;100625.81;5073091;28;20472;-67
2020/12/15 08:42:19;;;;;;;18.38;10.95;;;;;;;5.34;90.35;100622.91;5072949;28;20093;-67
2020/12/15 08:44:44;;;;;;;20.85;12.35;;;;;;;5.30;90.39;100629.44;5072966;28;20103;-67
2020/12/15 08:47:09;;;;;;;20.43;11.83;;;;;;;5.26;90.70;100617.41;5072732;28;20102;-67
2020/12/15 08:49:35;;;;;;;20.33;12.00;;;;;;;5.26;90.73;100626.19;5072944;28;20032;-67
2020/12/15 08:52:00;;;;;;;17.30;11.17;;;;;;;5.28;91.00;100626.06;5071915;28;20024;-67
2020/12/15 08:54:25;;;;;;;17.73;11.13;;;;;;;5.24;91.01;100622.88;5071761;28;20036;-67
2020/12/15 08:56:51;;;;;;;18.90;11.00;;;;;;;5.29;90.96;100622.44;5072589;28;20029;-68
2020/12/15 08:59:18;;;;;;;20.80;11.90;;;;;;;5.28;91.09;100623.44;5054817;28;20085;-68
2020/12/15 09:01:45;;;;;;;19.52;12.13;;;;;;;5.29;91.31;100622.44;5072328;28;20040;-68
2020/12/15 09:04:12;;;;;;;20.55;12.93;;;;;;;5.34;90.92;100628.22;5071628;28;20090;-68
2020/12/15 09:06:38;;;;;;;20.27;10.43;;;;;;;5.37;91.22;100627.09;5071259;28;20032;-68
2020/12/15 09:09:05;;;;;;;;;;;;;;;5.40;91.10;100626.84;5072212;28;20515;-68
2020/12/15 09:11:30;;;;;;;22.67;12.27;;;;;;;5.39;91.05;100631.28;5071260;28;20065;-68
2020/12/15 09:14:03;;;;;;;23.90;12.23;;;;;;;5.47;90.89;100626.16;5071467;28;20052;-68
2020/12/15 09:16:33;;;;;;;18.65;11.25;;;;;;;5.47;90.87;100630.63;5071106;28;20428;-68
2020/12/15 09:19:28;;;;;;;21.67;12.07;;;;;;;5.46;90.81;100627.16;5071467;28;20052;-69
2020/12/15 09:22:02;;;;;;;18.80;10.70;;;;;;;5.46;90.74;100637.75;5062143;28;20056;-68
2020/12/15 09:24:28;;;;;;;19.88;11.82;;;;;;;5.53;91.05;100629.28;5054644;28;20439;-69
2020/12/15 09:26:54;;;;;;;20.33;12.52;;;;;;;5.58;90.78;100635.00;5071847;28;20264;-69
2020/12/15 09:29:19;;;;;;;18.83;10.87;;;;;;;5.55;90.73;100632.59;5071276;28;20052;-69
2020/12/15 09:31:52;;;;;;;26.73;12.38;;;;;;;5.55;90.69;100635.25;5071994;28;20036;-69
2020/12/15 09:34:19;;;;;;;21.35;12.38;;;;;;;5.60;90.83;100639.19;5071202;28;20043;-69
2020/12/15 09:36:56;;;;;;;;;;;;;;;5.62;90.64;100641.69;5071039;28;20190;-69
2020/12/15 09:39:21;;;;;;;17.73;11.25;;;;;;;5.61;90.67;100646.16;5071078;28;19947;-69
2020/12/15 09:41:46;;;;;;;19.30;13.23;;;;;;;5.62;90.48;100636.41;5070797;28;20139;-69
2020/12/15 09:44:12;;;;;;;23.70;13.00;;;;;;;5.63;90.33;100644.22;5071955;28;20144;-69
2020/12/15 09:46:38;;;;;;;19.60;11.47;;;;;;;5.69;90.25;100648.16;5070444;28;20102;-69
2020/12/15 09:49:04;;;;;;;20.50;12.32;;;;;;;5.70;90.11;100639.22;5071664;28;20094;-69
2020/12/15 09:51:29;;;;;;;17.90;10.73;;;;;;;5.75;90.01;100641.47;5070623;28;20129;-69
2020/12/15 09:53:54;;;;;;;18.00;11.23;;;;;;;5.79;90.09;100635.78;5054146;28;20056;-69
2020/12/15 09:56:19;;;;;;;20.90;11.10;;;;;;;5.81;89.94;100640.97;5070489;28;20464;-69
2020/12/15 09:58:45;;;;;;;20.40;12.97;;;;;;;5.86;89.95;100634.28;5070711;28;20051;-69
2020/12/15 10:01:10;;;;;;;21.07;12.17;;;;;;;5.90;90.06;100632.22;5070702;28;20376;-69
2020/12/15 10:03:36;;;;;;;15.90;10.60;;;;;;;5.92;89.75;100635.53;5070202;28;20028;-69
2020/12/15 10:06:01;;;;;;;19.17;11.97;;;;;;;5.91;89.65;100636.53;5071291;28;20040;-69
2020/12/15 10:08:26;;;;;;;15.97;10.30;;;;;;;5.89;89.86;100627.84;5070521;28;20111;-69
2020/12/15 10:10:52;;;;;;;17.93;11.73;;;;;;;5.91;89.78;100621.44;5053659;28;20035;-69
2020/12/15 10:13:18;;;;;;;18.57;11.90;;;;;;;5.97;89.84;100621.91;5069707;28;20610;-69
2020/12/15 10:15:44;;;;;;;18.45;11.40;;;;;;;5.92;89.81;100623.16;5070272;28;20043;-69
2020/12/15 10:18:10;;;;;;;18.00;11.93;;;;;;;5.95;89.74;100621.19;5071116;28;20051;-69
2020/12/15 10:20:36;;;;;;;17.58;11.80;;;;;;;6.01;89.70;100636.56;5070181;28;20055;-69
2020/12/15 10:23:02;;;;;;;18.33;11.07;;;;;;;5.99;89.63;100617.31;5070093;28;20067;-69
2020/12/15 10:25:27;;;;;;;21.40;11.05;;;;;;;6.09;89.59;100626.16;5069896;28;20473;-69
2020/12/15 10:27:52;;;;;;;17.73;10.40;;;;;;;6.09;89.57;100631.44;5070192;28;20071;-69
2020/12/15 10:30:17;;;;;;;19.27;10.70;;;;;;;6.17;89.38;100628.09;5053278;28;20036;-69
2020/12/15 10:32:43;;;;;;;15.77;10.53;;;;;;;6.25;89.04;100639.72;5069712;28;20052;-69
2020/12/15 10:35:08;;;;;;;15.27;9.23;;;;;;;6.18;88.83;100643.88;5070126;28;20040;-69
2020/12/15 10:37:33;;;;;;;18.47;11.27;;;;;;;6.07;89.17;100636.03;5069424;28;20076;-69
2020/12/15 10:39:59;;;;;;;15.80;10.23;;;;;;;6.12;89.43;100652.38;5071075;28;20032;-69
2020/12/15 10:42:26;;;;;;;18.37;11.60;;;;;;;6.15;89.28;100644.13;5070021;28;20048;-69
2020/12/15 10:44:51;;;;;;;18.85;11.63;;;;;;;6.11;89.28;100642.72;5070083;28;20060;-69
2020/12/15 10:47:16;;;;;;;15.17;9.07;;;;;;;6.12;89.38;100645.25;5070937;28;20450;-69
2020/12/15 10:49:42;;;;;;;15.17;10.07;;;;;;;6.24;89.18;100648.63;5069964;28;20519;-69
2020/12/15 10:52:07;;;;;;;17.23;11.30;;;;;;;6.18;89.28;100648.31;5070200;28;20667;-69
2020/12/15 10:54:33;;;;;;;16.07;10.07;;;;;;;6.21;89.03;100643.59;5070378;28;20063;-69
2020/12/15 10:56:58;;;;;;;16.83;10.35;;;;;;;6.27;89.35;100658.13;5070681;28;20086;-69
2020/12/15 10:59:24;;;;;;;18.40;10.80;;;;;;;6.28;89.18;100649.19;5070084;28;20068;-69
2020/12/15 11:01:51;;;;;;;17.33;11.87;;;;;;;6.26;89.32;100657.28;5069901;28;20072;-69
2020/12/15 11:04:17;;;;;;;16.55;10.10;;;;;;;6.24;89.29;100639.84;5069780;28;20048;-69
2020/12/15 11:06:42;;;;;;;17.63;11.05;;;;;;;6.31;89.41;100641.78;5069726;28;20664;-69
2020/12/15 11:09:10;;;;;;;16.10;11.52;;;;;;;6.32;89.43;100635.53;5070946;28;20036;-69
2020/12/15 11:11:35;;;;;;;17.10;11.73;;;;;;;6.32;89.15;100638.19;5069892;28;20377;-69
2020/12/15 11:14:00;;;;;;;17.87;11.90;;;;;;;6.35;89.47;100629.13;5070934;28;20028;-69
2020/12/15 11:16:26;;;;;;;21.33;11.63;;;;;;;6.40;89.43;100620.75;5069562;28;20120;-69
2020/12/15 11:18:51;;;;;;;17.63;10.93;;;;;;;6.41;89.03;100638.31;5070780;28;20044;-69
2020/12/15 11:21:16;;;;;;;19.97;11.13;;;;;;;6.39;89.23;100654.38;5069799;28;20032;-69
2020/12/15 11:23:42;;;;;;;19.00;11.80;;;;;;;6.42;89.37;100650.63;5071626;28;20040;-69
2020/12/15 11:26:07;;;;;;;17.53;10.97;;;;;;;6.53;89.37;100645.16;5073233;28;20032;-69
2020/12/15 11:28:32;;;;;;;19.50;11.90;;;;;;;6.62;89.13;100636.38;5073650;28;20086;-69
2020/12/15 11:30:58;;;;;;;18.87;11.17;;;;;;;6.55;89.29;100625.50;5072266;28;20155;-68
2020/12/15 11:33:23;;;;;;;22.00;11.20;;;;;;;6.64;88.82;100633.59;5072805;28;20036;-69